KGTB

Wheeler-Sack AAF Airport

Fort Drum, New York, USA
TAF KGTB 251705Z 2517/2623 15020G30KT 9000 -SHRA BKN030 OVC040 520002 510203 QNH3000INS TEMPO 2517/2518 15030G40KT 520003 510302 BECMG 2521/2522 18012KT 9999 NSW BKN020 OVC050 QNH2980INS BECMG 2607/2608 21015G25KT 9000 -SHRA BKN020 OVC050 510002 510202 QNH2971INS TEMPO 2618/2621 27025G35KT TX22/2617Z TN10/2517Z
Issued Valid From Valid To
Sep-25 @ 17:05 UTC
(2 hours ago)
Sep-25 @ 17:00 UTC
(2 hours ago)
Sep-26 @ 23:00 UTC
(-1 days ago)
Sep-25 @ 17:00 to Sep-25 @ 21:00
TAF KGTB 251705Z 2517/2623 15020G30KT 9000 -SHRA BKN030 OVC040 520002 510203 QNH3000INS
Wind Visibility Clouds Conditions Readings Turbulence
150° at 20 knots
 Gusting to 30 knots
5.6 miles
  • Broken at 3,000' AGL
  • Overcast at 4,000' AGL
  • Light Rain
Altimeter 30" Hg
Pressure 1016 hPa
Light turbulence expected at 2,000' AGL extending to 5,000' AGL
Expired Click to View Sep-25 @ 17:00 to Sep-25 @ 18:00
TEMPO 2517/2518 15030G40KT 520003 510302
Wind Turbulence
150° at 30 knots
 Gusting to 40 knots
Light turbulence expected at 3,000' AGL extending to 5,000' AGL
Becoming Sep-25 @ 21:00 to Sep-26 @ 07:00
BECMG 2521/2522 18012KT 9999 NSW BKN020 OVC050 QNH2980INS
Wind Visibility Clouds Conditions Readings
180° at 12 knots Greater than 6 miles
  • Broken at 2,000' AGL
  • Overcast at 5,000' AGL
Altimeter 29.79" Hg
Pressure 1009 hPa
Becoming Sep-26 @ 07:00 to Sep-26 @ 23:00
BECMG 2607/2608 21015G25KT 9000 -SHRA BKN020 OVC050 510002 510202 QNH2971INS
Wind Visibility Clouds Conditions Readings Turbulence
210° at 15 knots
 Gusting to 25 knots
5.6 miles
  • Broken at 2,000' AGL
  • Overcast at 5,000' AGL
  • Light Rain
Altimeter 29.7" Hg
Pressure 1006 hPa
Light turbulence expected at 2,000' AGL extending to 4,000' AGL
Temporary Sep-26 @ 18:00 to Sep-26 @ 21:00
TEMPO 2618/2621 27025G35KT TX22/2617Z TN10/2517Z
Wind
270° at 25 knots
 Gusting to 35 knots
TAF KGTB 251705Z 2517/2623 15020G30KT 9000 -SHRA BKN030 OVC040 520002 510203 QNH3000INS TEMPO 2517/2518 15030G40KT 520003 510302 BECMG 2521/2522 18012KT 9999 NSW BKN020 OVC050 QNH2980INS BECMG 2607/2608 21015G25KT 9000 -SHRA BKN020 OVC050 510002 510202 QNH2971INS TEMPO 2618/2621 27025G35KT TX22/2617Z TN10/2517Z
Issued Sep-25 @ 17:05 UTC
(2 hours ago)
Valid From Sep-25 @ 17:00 UTC
(2 hours ago)
Valid To Sep-26 @ 23:00 UTC
(-1 days ago)
Sep-25 @ 17:00 - Sep-25 @ 21:00
Wind Visibility
150° at 20 knots
 Gusting to 30 knots
5.6 miles
Clouds
  • Broken at 3,000' AGL
  • Overcast at 4,000' AGL
Conditions
  • Light Rain
Sep-25 @ 17:00 - Sep-25 @ 18:00
Wind
150° at 30 knots
 Gusting to 40 knots
Becoming Sep-25 @ 21:00 - Sep-26 @ 07:00
Wind Visibility
180° at 12 knots Greater than 6 miles
Clouds
  • Broken at 2,000' AGL
  • Overcast at 5,000' AGL
Conditions
Becoming Sep-26 @ 07:00 - Sep-26 @ 23:00
Wind Visibility
210° at 15 knots
 Gusting to 25 knots
5.6 miles
Clouds
  • Broken at 2,000' AGL
  • Overcast at 5,000' AGL
Conditions
  • Light Rain
Temporary Sep-26 @ 18:00 - Sep-26 @ 21:00
Wind
270° at 25 knots
 Gusting to 35 knots